This is the latest recevied weather packets stored in our database for station/object M0XDC. If no packets are shown the sender has not sent any weather packets the latest 10 day(s).
| Time | Temp. | Humidity | Pressure | Rain* | Wind** | Luminosity | Snow |
|---|---|---|---|---|---|---|---|
| 1787647723 | 20.56° C | 68% | 1011.5 hPa | 0 mm | - | - | - |
| 1787645923 | 19.44° C | 71% | 1011.4 hPa | 0 mm | - | - | - |
| 1787644123 | 18.33° C | 76% | 1011.6 hPa | 0 mm | - | - | - |
| 1787642323 | 16.67° C | 79% | 1011.7 hPa | 0 mm | - | - | - |
| 1787640523 | 15.56° C | 81% | 1011.3 hPa | 0 mm | - | - | - |
| 1787638723 | 14.44° C | 84% | 1011.4 hPa | 0 mm | - | - | - |
| 1787636923 | 13.33° C | 86% | 1011.5 hPa | 0 mm | - | - | - |
| 1787635123 | 12.78° C | 89% | 1011.4 hPa | 0 mm | - | - | - |
| 1787633323 | 12.78° C | 90% | 1011.5 hPa | 0 mm | - | - | - |
| 1787631523 | 12.78° C | 90% | 1011.3 hPa | 0 mm | - | - | - |
| 1787629723 | 12.78° C | 89% | 1011.5 hPa | 0 mm | - | - | - |
| 1787627923 | 13.33° C | 87% | 1011.6 hPa | 0 mm | - | - | - |
| 1787626123 | 13.89° C | 86% | 1011.6 hPa | 0 mm | - | - | - |
| 1787624323 | 14.44° C | 86% | 1011.7 hPa | 0 mm | - | - | - |
| 1787622523 | 14.44° C | 85% | 1012 hPa | 0 mm | - | - | - |
| 1787620723 | 14.44° C | 85% | 1012.4 hPa | 0 mm | - | - | - |
| 1787618923 | 13.89° C | 85% | 1012.5 hPa | 0 mm | - | - | - |
| 1787617123 | 13.89° C | 85% | 1012.6 hPa | 0 mm | - | - | - |
| 1787615323 | 13.89° C | 84% | 1012.8 hPa | 0 mm | - | - | - |
| 1787613523 | 13.89° C | 83% | 1012.7 hPa | 0 mm | - | - | - |
| 1787611723 | 14.44° C | 81% | 1013 hPa | 0 mm | - | - | - |
| 1787609923 | 14.44° C | 80% | 1013.5 hPa | 0 mm | - | - | - |
| 1787608123 | 14.44° C | 77% | 1013.6 hPa | 0 mm | - | - | - |
| 1787606323 | 15° C | 74% | 1013.9 hPa | 0 mm | - | - | - |
| 1787604523 | 15.56° C | 73% | 1014.4 hPa | 0 mm | - | - | - |
* Rain latest hour (hover to see other rain measurements)
** Current wind speed in m/s (hover to see current wind gust speed)